Time;durP1;ratioP1;P1;durP2;ratioP2;P2;SDS_P1;SDS_P2;PMS_P1;PMS_P2;Temp;Humidity;BMP_temperature;BMP_pressure;BME280_temperature;BME280_humidity;BME280_pressure;Samples;Min_cycle;Max_cycle;Signal;HPM_P1;HPM_P2
2024/04/05 00:01:28;;;;;;;3.88;1.45;;;;;;;12.79;100.00;99912.75;10403564;28;20427;-69
2024/04/05 00:06:28;;;;;;;5.78;2.28;;;;;;;12.82;100.00;99907.13;10410582;28;20053;-68
2024/04/05 00:11:29;;;;;;;3.50;1.85;;;;;;;12.62;100.00;99883.16;10384002;28;20045;-68
2024/04/05 00:16:29;;;;;;;4.40;1.95;;;;;;;12.78;100.00;99925.28;10385768;28;20068;-69
2024/04/05 00:21:30;;;;;;;2.90;1.75;;;;;;;12.61;100.00;99884.16;10402639;28;20064;-71
2024/04/05 00:26:30;;;;;;;3.70;2.13;;;;;;;12.87;100.00;99915.56;10404317;28;20131;-68
2024/04/05 00:31:31;;;;;;;4.93;2.35;;;;;;;12.89;100.00;99902.88;10406098;28;20044;-68
2024/04/05 00:36:31;;;;;;;3.00;1.60;;;;;;;12.88;100.00;99903.84;10409996;28;20128;-68
2024/04/05 00:41:32;;;;;;;5.75;2.05;;;;;;;12.90;100.00;99909.91;10407963;28;20139;-69
2024/04/05 00:46:34;;;;;;;3.05;1.95;;;;;;;12.90;100.00;99915.25;10411414;28;20773;-67
2024/04/05 00:51:37;;;;;;;4.07;1.58;;;;;;;12.85;100.00;99894.31;10395740;28;20136;-68
2024/04/05 00:56:38;;;;;;;3.42;1.85;;;;;;;12.86;100.00;99903.16;10400456;28;20175;-68
2024/04/05 01:01:38;;;;;;;3.70;1.65;;;;;;;12.90;100.00;99905.41;10397415;28;20568;-67
2024/04/05 01:06:39;;;;;;;3.38;1.52;;;;;;;12.90;100.00;99902.72;10403293;28;20048;-67
2024/04/05 01:11:39;;;;;;;5.38;1.90;;;;;;;12.90;100.00;99901.91;10407857;28;20143;-68
2024/04/05 01:16:40;;;;;;;5.05;1.58;;;;;;;12.90;100.00;99900.06;10393142;28;20048;-69
2024/04/05 01:21:40;;;;;;;4.55;1.63;;;;;;;12.80;100.00;99877.06;10407915;28;20067;-69
2024/04/05 01:26:41;;;;;;;4.90;1.73;;;;;;;12.73;100.00;99872.31;10401141;28;20762;-68
2024/04/05 01:31:41;;;;;;;3.78;1.38;;;;;;;12.90;100.00;99891.22;10424572;28;20063;-68
2024/04/05 01:36:42;;;;;;;6.28;2.08;;;;;;;12.91;100.00;99890.22;10407834;28;21642;-67
2024/04/05 01:41:42;;;;;;;4.15;1.42;;;;;;;12.90;100.00;99894.72;10408553;28;20128;-67
2024/04/05 01:46:42;;;;;;;6.00;1.77;;;;;;;12.88;100.00;99895.84;10408200;28;20045;-67
2024/04/05 01:51:43;;;;;;;6.90;1.58;;;;;;;12.61;100.00;99859.28;10424193;28;20124;-69
2024/04/05 01:56:43;;;;;;;4.05;1.67;;;;;;;12.82;100.00;99885.75;10406396;28;20056;-68
2024/04/05 02:01:44;;;;;;;4.65;1.65;;;;;;;12.87;100.00;99878.16;10408452;28;20040;-69
2024/04/05 02:06:44;;;;;;;2.35;1.60;;;;;;;12.91;100.00;99882.22;10411475;28;20045;-70
2024/04/05 02:11:45;;;;;;;3.45;1.77;;;;;;;12.89;100.00;99886.84;10412668;28;20120;-69
2024/04/05 02:16:45;;;;;;;5.80;1.88;;;;;;;12.92;100.00;99886.56;10405120;28;20462;-68
2024/04/05 02:21:46;;;;;;;3.75;1.77;;;;;;;12.71;100.00;99850.22;10406247;28;20126;-68
2024/04/05 02:26:46;;;;;;;5.93;1.77;;;;;;;12.81;100.00;99879.56;10407964;28;20047;-69
2024/04/05 02:31:47;;;;;;;3.65;1.20;;;;;;;12.78;100.00;99884.38;10405032;28;20052;-69
2024/04/05 02:36:50;;;;;;;2.25;1.40;;;;;;;12.71;100.00;99900.97;10411600;28;21495;-68
2024/04/05 02:41:51;;;;;;;5.57;2.25;;;;;;;12.68;100.00;99909.28;10409173;28;20259;-61
2024/04/05 02:46:52;;;;;;;4.07;1.50;;;;;;;12.65;100.00;99900.72;10403065;28;20052;-62
2024/04/05 02:51:53;;;;;;;6.38;1.80;;;;;;;12.71;100.00;99905.47;10403219;28;20169;-61
2024/04/05 02:56:53;;;;;;;4.28;1.98;;;;;;;12.77;100.00;99909.41;10424770;28;20710;-62
2024/04/05 03:01:53;;;;;;;2.88;1.77;;;;;;;12.72;100.00;99908.00;10389609;28;20060;-61
2024/04/05 03:06:54;;;;;;;3.55;2.10;;;;;;;12.77;100.00;99917.41;10407451;28;20049;-61
2024/04/05 03:11:54;;;;;;;5.78;2.00;;;;;;;12.80;100.00;99915.28;10405183;28;20047;-62
2024/04/05 03:16:55;;;;;;;6.15;1.60;;;;;;;12.81;100.00;99921.47;10408565;28;20049;-60
2024/04/05 03:21:55;;;;;;;6.15;1.67;;;;;;;12.84;100.00;99935.38;10425645;28;20144;-61
2024/04/05 03:26:56;;;;;;;4.38;2.25;;;;;;;12.82;100.00;99939.16;10414781;28;20049;-60
2024/04/05 03:31:56;;;;;;;4.00;1.85;;;;;;;12.81;100.00;99940.19;10359734;28;20060;-61
2024/04/05 03:36:57;;;;;;;5.20;2.00;;;;;;;12.85;100.00;99934.41;10365414;28;20056;-62
2024/04/05 03:41:57;;;;;;;5.10;1.92;;;;;;;12.83;100.00;99930.19;10411917;28;20114;-61
2024/04/05 03:46:57;;;;;;;4.18;1.70;;;;;;;12.84;100.00;99923.84;10408622;28;20053;-62
2024/04/05 03:51:58;;;;;;;4.55;2.13;;;;;;;12.82;100.00;99923.13;10409567;28;20052;-65
2024/04/05 03:56:58;;;;;;;4.70;2.50;;;;;;;12.85;100.00;99922.84;10407670;28;20099;-63
2024/04/05 04:01:59;;;;;;;3.70;1.65;;;;;;;12.87;100.00;99916.38;10410532;28;20625;-62
2024/04/05 04:07:01;;;;;;;4.70;1.67;;;;;;;12.87;100.00;99924.38;10402257;28;20682;-64
2024/04/05 04:12:03;;;;;;;6.88;2.47;;;;;;;12.89;100.00;99913.56;10392641;28;20649;-60
2024/04/05 04:17:03;;;;;;;10.00;1.83;;;;;;;12.87;100.00;99918.22;10409121;28;20163;-61
2024/04/05 04:22:04;;;;;;;4.53;2.22;;;;;;;12.90;100.00;99920.59;10414692;28;20203;-60
2024/04/05 04:27:05;;;;;;;4.05;2.17;;;;;;;12.94;100.00;99911.31;10405420;28;20047;-61
2024/04/05 04:32:06;;;;;;;4.43;1.60;;;;;;;12.96;100.00;99908.50;10397821;28;20052;-61
2024/04/05 04:37:06;;;;;;;5.63;2.50;;;;;;;13.08;100.00;99932.19;10409864;28;20148;-61
2024/04/05 04:42:07;;;;;;;4.75;1.55;;;;;;;13.14;100.00;99932.59;10400680;28;20057;-61
2024/04/05 04:47:07;;;;;;;6.75;2.03;;;;;;;13.19;100.00;99943.66;10381109;28;20050;-61
2024/04/05 04:52:08;;;;;;;4.13;1.70;;;;;;;13.22;100.00;99946.03;10376011;28;20621;-60
2024/04/05 04:57:08;;;;;;;4.05;1.45;;;;;;;13.22;100.00;99938.84;10357978;28;20636;-62
2024/04/05 05:02:09;;;;;;;5.95;2.20;;;;;;;13.07;100.00;99913.63;10390672;28;20049;-62
2024/04/05 05:07:09;;;;;;;6.30;1.80;;;;;;;13.30;100.00;99932.78;10411050;28;20041;-62
2024/04/05 05:12:10;;;;;;;5.03;2.08;;;;;;;13.31;100.00;99934.44;10408906;28;20070;-61
2024/04/05 05:17:10;;;;;;;4.80;1.88;;;;;;;13.31;100.00;99934.44;10406004;28;20683;-61
2024/04/05 05:22:11;;;;;;;6.60;1.70;;;;;;;13.37;100.00;99933.88;10404985;28;20049;-62
2024/04/05 05:27:11;;;;;;;4.38;1.63;;;;;;;13.36;100.00;99932.22;10403734;28;20056;-61
2024/04/05 05:32:11;;;;;;;4.57;1.83;;;;;;;13.42;100.00;99936.97;10415827;28;20521;-62
2024/04/05 05:37:12;;;;;;;4.85;1.80;;;;;;;13.49;100.00;99937.19;10398153;28;20108;-60
2024/04/05 05:42:13;;;;;;;5.05;2.00;;;;;;;13.53;100.00;99943.94;10404504;28;20053;-61
2024/04/05 05:47:13;;;;;;;3.65;1.90;;;;;;;13.54;100.00;99944.75;10392809;28;20128;-61
2024/04/05 05:52:14;;;;;;;4.68;2.50;;;;;;;13.51;100.00;99935.25;10403792;28;20140;-61
2024/04/05 05:57:15;;;;;;;4.80;2.05;;;;;;;13.53;100.00;99937.75;10402883;28;20172;-61
2024/04/05 06:02:15;;;;;;;5.15;2.50;;;;;;;13.37;100.00;99922.38;10386576;28;20507;-61
2024/04/05 06:07:16;;;;;;;7.28;3.35;;;;;;;13.49;100.00;99939.03;10402062;28;20182;-61
2024/04/05 06:12:16;;;;;;;5.57;3.08;;;;;;;13.49;100.00;99936.38;10402223;28;20113;-61
2024/04/05 06:17:17;;;;;;;8.40;3.65;;;;;;;13.54;100.00;99937.59;10392606;28;20580;-61
2024/04/05 06:22:17;;;;;;;8.43;3.92;;;;;;;13.56;100.00;99948.16;10417144;28;20068;-62
2024/04/05 06:27:19;;;;;;;7.57;3.78;;;;;;;13.58;100.00;99940.81;10413366;28;20088;-61
2024/04/05 06:32:19;;;;;;;9.15;3.72;;;;;;;13.64;100.00;99958.91;10385017;28;20049;-61
2024/04/05 06:37:20;;;;;;;10.45;4.10;;;;;;;13.67;100.00;99961.28;10390553;28;20053;-61
2024/04/05 06:42:20;;;;;;;6.55;4.10;;;;;;;13.71;100.00;99962.69;10396953;28;20851;-64
2024/04/05 06:47:21;;;;;;;7.38;3.40;;;;;;;13.79;100.00;99962.75;10404277;28;20072;-61
2024/04/05 06:52:22;;;;;;;8.60;3.72;;;;;;;13.94;100.00;99946.19;10384306;28;20056;-62
2024/04/05 06:57:23;;;;;;;7.63;4.45;;;;;;;14.06;100.00;99939.59;10389795;28;20045;-61
2024/04/05 07:02:23;;;;;;;6.15;3.28;;;;;;;14.22;100.00;99932.72;10407633;28;20152;-67
2024/04/05 07:07:24;;;;;;;8.32;3.38;;;;;;;14.31;100.00;99923.75;10376733;28;20063;-67
2024/04/05 07:12:25;;;;;;;6.35;3.30;;;;;;;14.50;100.00;99931.59;10388825;28;20069;-66
2024/04/05 07:17:25;;;;;;;9.85;3.35;;;;;;;14.54;100.00;99915.22;10373138;28;20598;-68
2024/04/05 07:22:27;;;;;;;7.38;4.10;;;;;;;14.84;100.00;99927.31;10368247;28;20402;-70
2024/04/05 07:27:28;;;;;;;7.15;3.10;;;;;;;14.96;100.00;99941.28;10401338;28;20179;-67
2024/04/05 07:32:28;;;;;;;10.05;3.42;;;;;;;14.85;100.00;99903.03;10414033;28;20099;-67
2024/04/05 07:37:29;;;;;;;7.18;4.25;;;;;;;15.07;100.00;99927.56;10384648;28;20428;-66
2024/04/05 07:42:30;;;;;;;5.97;2.88;;;;;;;15.05;100.00;99907.31;10371289;28;20796;-72
2024/04/05 07:47:30;;;;;;;4.57;2.92;;;;;;;15.13;100.00;99910.00;10404702;28;21036;-68
2024/04/05 07:52:31;;;;;;;6.03;3.45;;;;;;;15.39;100.00;99918.00;10347288;28;20115;-68
2024/04/05 07:57:32;;;;;;;5.75;2.95;;;;;;;15.48;100.00;99925.06;10369060;28;20123;-61
2024/04/05 08:02:34;;;;;;;6.68;3.15;;;;;;;15.55;100.00;99910.00;10394905;28;20052;-61
2024/04/05 08:07:35;;;;;;;6.78;2.85;;;;;;;15.44;100.00;99890.69;10394546;28;20126;-61
2024/04/05 08:12:36;;;;;;;10.23;4.43;;;;;;;15.61;100.00;99910.31;10415075;28;20049;-62
2024/04/05 08:17:37;;;;;;;9.63;3.50;;;;;;;15.50;100.00;99885.50;10411473;28;20144;-60
2024/04/05 08:22:38;;;;;;;6.65;3.20;;;;;;;15.85;100.00;99921.16;10406064;28;20463;-61
2024/04/05 08:27:42;;;;;;;5.07;2.65;;;;;;;16.08;99.28;99920.50;10397267;28;20042;-63
2024/04/05 08:32:44;;;;;;;7.88;2.85;;;;;;;16.08;98.10;99873.00;10396209;28;20045;-63
2024/04/05 08:37:44;;;;;;;5.32;2.80;;;;;;;16.56;98.09;99899.97;10395092;28;20898;-66
2024/04/05 08:42:51;;;;;;;4.90;2.28;;;;;;;16.84;94.12;99886.09;10408551;28;20037;-60
2024/04/05 08:47:55;;;;;;;5.13;2.28;;;;;;;17.21;94.13;99884.63;10412035;28;20159;-61
2024/04/05 08:52:56;;;;;;;3.28;1.60;;;;;;;17.53;91.32;99866.63;10379082;28;20132;-62
2024/04/05 08:57:58;;;;;;;4.75;1.60;;;;;;;17.81;88.48;99866.94;10368679;28;20200;-65
2024/04/05 09:03:01;;;;;;;5.88;1.75;;;;;;;17.85;85.29;99837.81;10375438;28;20542;-63
2024/04/05 09:08:03;;;;;;;4.30;1.27;;;;;;;18.29;84.91;99837.09;10407647;28;20753;-63
2024/04/05 09:13:07;;;;;;;4.05;1.17;;;;;;;18.41;81.67;99829.38;10394519;28;20143;-62
2024/04/05 09:18:07;;;;;;;4.90;1.10;;;;;;;18.61;79.82;99853.91;10402533;28;20267;-62
2024/04/05 09:23:07;;;;;;;2.58;1.05;;;;;;;18.75;80.74;99832.53;10356726;28;20057;-62
2024/04/05 09:28:20;;;;;;;3.75;0.90;;;;;;;18.94;78.41;99852.75;10414399;28;20051;-63
2024/04/05 09:33:21;;;;;;;4.75;0.75;;;;;;;19.00;78.18;99836.63;10395262;28;20264;-62
2024/04/05 09:38:22;;;;;;;1.38;0.70;;;;;;;19.06;75.10;99832.34;10385633;28;20138;-65
2024/04/05 09:43:24;;;;;;;4.07;0.95;;;;;;;18.98;75.75;99821.69;10400818;28;20500;-63
2024/04/05 09:48:31;;;;;;;5.65;1.08;;;;;;;19.06;74.04;99835.88;10378826;28;20902;-63
2024/04/05 09:53:34;;;;;;;3.70;0.85;;;;;;;19.27;70.83;99826.16;10412555;28;20284;-62
2024/04/05 09:58:35;;;;;;;3.23;0.80;;;;;;;19.23;71.63;99765.50;10363185;28;20133;-62
2024/04/05 10:03:35;;;;;;;3.38;0.90;;;;;;;20.16;68.85;99797.88;10400282;28;20590;-63
2024/04/05 10:08:36;;;;;;;2.78;0.43;;;;;;;20.37;62.76;99779.94;10397919;28;20044;-62
2024/04/05 10:13:36;;;;;;;5.20;1.27;;;;;;;20.36;62.32;99781.81;10407187;28;20104;-63
2024/04/05 10:18:39;;;;;;;2.40;0.73;;;;;;;20.32;61.63;99785.94;10376833;28;20104;-62
2024/04/05 10:23:43;;;;;;;2.17;0.70;;;;;;;20.28;57.91;99771.16;10365240;28;20128;-63
2024/04/05 10:28:43;;;;;;;2.60;0.82;;;;;;;20.46;60.45;99781.44;10416719;28;20131;-63
2024/04/05 10:33:45;;;;;;;2.60;0.90;;;;;;;20.35;59.48;99758.50;10414483;28;20074;-62
2024/04/05 10:38:46;;;;;;;2.08;0.82;;;;;;;20.32;58.96;99764.31;10415424;28;20634;-62
2024/04/05 10:43:46;;;;;;;4.68;1.20;;;;;;;20.14;58.86;99757.56;10413577;28;20057;-67
2024/04/05 10:48:56;;;;;;;2.13;0.40;;;;;;;19.91;58.82;99773.22;10411477;28;20140;-62
2024/04/05 10:54:13;;;;;;;2.25;0.70;;;;;;;19.73;59.19;99760.97;10391733;28;20116;-65
2024/04/05 10:59:17;;;;;;;3.25;0.60;;;;;;;19.94;58.31;99751.22;10405234;28;20124;-65
2024/04/05 11:04:24;;;;;;;2.90;1.00;;;;;;;19.94;58.42;99751.22;10397551;28;20134;-65
2024/04/05 11:09:32;;;;;;;3.50;0.65;;;;;;;19.85;58.30;99738.88;10373361;28;20570;-71
2024/04/05 11:14:33;;;;;;;3.90;0.70;;;;;;;19.77;57.70;99735.31;10413417;28;20131;-68
2024/04/05 11:19:33;;;;;;;3.25;0.52;;;;;;;19.76;57.44;99714.69;10401554;28;20070;-66
2024/04/05 11:24:34;;;;;;;3.28;0.68;;;;;;;19.85;58.76;99701.91;10416888;28;20063;-64
2024/04/05 11:29:35;;;;;;;2.78;1.00;;;;;;;19.97;57.97;99704.91;10411706;28;20621;-66
2024/04/05 11:34:35;;;;;;;3.03;0.57;;;;;;;20.09;57.91;99703.28;10406146;28;20052;-65
2024/04/05 11:39:36;;;;;;;1.38;0.45;;;;;;;19.94;58.22;99686.38;10406352;28;20136;-66
2024/04/05 11:44:36;;;;;;;4.25;1.23;;;;;;;19.68;57.44;99660.00;10410027;28;20596;-66
2024/04/05 11:49:37;;;;;;;3.47;1.00;;;;;;;19.69;59.49;99657.09;10409106;28;20099;-66
2024/04/05 11:54:39;;;;;;;1.70;0.63;;;;;;;19.60;58.38;99647.50;10395265;28;20045;-66
2024/04/05 11:59:43;;;;;;;4.15;1.15;;;;;;;19.70;59.09;99666.88;10389532;28;20738;-66
2024/04/05 12:04:43;;;;;;;3.50;0.52;;;;;;;20.02;58.88;99688.91;10415052;28;20667;-65
2024/04/05 12:09:44;;;;;;;3.08;0.57;;;;;;;20.67;55.93;99675.06;10402182;28;20141;-67
2024/04/05 12:14:44;;;;;;;3.28;0.57;;;;;;;22.59;52.72;99688.72;10407127;28;20057;-64
2024/04/05 12:19:47;;;;;;;5.75;0.77;;;;;;;23.99;46.42;99675.97;10402233;28;20107;-71
2024/04/05 12:24:51;;;;;;;2.42;0.63;;;;;;;24.45;42.96;99665.59;10408691;28;20140;-68
2024/04/05 12:29:51;;;;;;;3.25;0.50;;;;;;;22.88;45.62;99653.91;10409222;28;20194;-64
2024/04/05 12:34:52;;;;;;;2.50;0.60;;;;;;;22.17;47.66;99674.69;10404648;28;20116;-66
2024/04/05 12:39:54;;;;;;;2.05;0.68;;;;;;;21.46;48.49;99665.38;10411005;28;20136;-66
2024/04/05 12:44:55;;;;;;;1.85;0.57;;;;;;;21.29;50.00;99634.41;10402964;28;20148;-66
2024/04/05 12:49:55;;;;;;;3.22;0.70;;;;;;;21.43;49.50;99659.56;10405228;28;20057;-65
2024/04/05 12:54:56;;;;;;;1.63;0.55;;;;;;;21.13;50.80;99668.94;10404965;28;20139;-65
2024/04/05 12:59:56;;;;;;;4.40;0.75;;;;;;;20.93;50.35;99668.91;10404112;28;20568;-64
2024/04/05 13:04:59;;;;;;;2.30;0.77;;;;;;;20.66;51.04;99666.13;10385171;28;20127;-65
2024/04/05 13:10:00;;;;;;;2.55;0.57;;;;;;;20.48;52.28;99650.47;10405791;28;20048;-62
2024/04/05 13:15:00;;;;;;;2.75;0.60;;;;;;;20.40;52.46;99647.94;10367019;28;20064;-63
2024/04/05 13:20:01;;;;;;;5.35;0.70;;;;;;;20.42;53.36;99699.94;10393768;28;20198;-64
2024/04/05 13:25:01;;;;;;;1.63;0.70;;;;;;;20.43;53.85;99688.09;10413445;28;20065;-64
2024/04/05 13:30:02;;;;;;;2.35;1.10;;;;;;;20.48;53.71;99704.53;10395624;28;20050;-63
2024/04/05 13:35:03;;;;;;;3.45;0.93;;;;;;;20.39;54.38;99723.84;10408178;28;20066;-64
2024/04/05 13:40:06;;;;;;;5.25;0.85;;;;;;;20.33;54.93;99721.91;10399361;28;20645;-65
2024/04/05 13:45:07;;;;;;;2.92;0.80;;;;;;;20.32;55.45;99729.19;10422280;28;20140;-64
2024/04/05 13:50:08;;;;;;;2.50;0.70;;;;;;;20.29;54.78;99757.44;10409892;28;20550;-64
2024/04/05 13:55:08;;;;;;;2.17;0.50;;;;;;;20.27;53.05;99745.19;10407452;28;20056;-64
2024/04/05 14:00:13;;;;;;;3.58;0.95;;;;;;;20.29;52.21;99745.81;10411696;28;20049;-64
2024/04/05 14:05:13;;;;;;;3.42;0.60;;;;;;;20.28;51.53;99746.81;10413850;28;20147;-64
2024/04/05 14:10:14;;;;;;;1.27;0.40;;;;;;;20.30;51.32;99720.47;10407655;28;20075;-62
2024/04/05 14:15:15;;;;;;;2.00;0.77;;;;;;;20.53;50.28;99730.13;10369212;28;20090;-63
2024/04/05 14:20:15;;;;;;;1.45;0.50;;;;;;;20.81;49.30;99713.84;10398992;28;20140;-63
2024/04/05 14:25:16;;;;;;;3.60;0.55;;;;;;;20.87;49.09;99695.94;10404479;28;20056;-68
2024/04/05 14:30:16;;;;;;;2.95;0.80;;;;;;;20.68;49.60;99714.59;10392984;28;20049;-63
2024/04/05 14:35:17;;;;;;;4.93;0.77;;;;;;;20.51;50.43;99714.09;10402179;28;20061;-63
2024/04/05 14:40:18;;;;;;;0.70;0.40;;;;;;;20.25;51.18;99698.59;10403943;28;20095;-69
2024/04/05 14:45:18;;;;;;;1.70;0.47;;;;;;;20.24;51.54;99705.06;10371330;28;20057;-65
2024/04/05 14:50:19;;;;;;;2.28;0.70;;;;;;;20.19;51.98;99712.91;10365320;28;20045;-65
2024/04/05 14:55:19;;;;;;;2.75;0.68;;;;;;;20.05;51.77;99715.53;10399692;28;20136;-64
2024/04/05 15:00:19;;;;;;;2.58;0.88;;;;;;;20.04;52.30;99719.28;10419571;28;20053;-65
2024/04/05 15:05:20;;;;;;;4.53;0.80;;;;;;;20.02;51.80;99721.31;10399258;28;20078;-64
2024/04/05 15:10:20;;;;;;;3.00;1.10;;;;;;;19.99;51.50;99732.53;10398516;28;20057;-64
2024/04/05 15:15:21;;;;;;;1.95;0.40;;;;;;;19.90;51.28;99733.72;10372268;28;21006;-62
2024/04/05 15:20:22;;;;;;;2.78;0.50;;;;;;;19.69;51.98;99703.00;10413854;28;20088;-63
2024/04/05 15:25:22;;;;;;;2.10;0.60;;;;;;;19.86;52.09;99748.63;10429467;28;20051;-64
2024/04/05 15:30:23;;;;;;;2.58;0.88;;;;;;;19.76;52.38;99744.38;10369842;28;20110;-64
2024/04/05 15:35:24;;;;;;;1.92;0.68;;;;;;;19.68;53.31;99735.59;10384388;28;20524;-62
2024/04/05 15:40:24;;;;;;;1.10;0.28;;;;;;;19.61;51.28;99741.78;10409744;28;20049;-63
2024/04/05 15:45:25;;;;;;;1.33;0.45;;;;;;;19.49;51.27;99723.63;10400346;28;20057;-63
2024/04/05 15:50:25;;;;;;;1.70;0.40;;;;;;;19.47;51.69;99720.25;10397865;28;20053;-63
2024/04/05 15:55:26;;;;;;;4.75;0.50;;;;;;;19.40;51.89;99707.56;10406086;28;20055;-63
2024/04/05 16:00:26;;;;;;;2.08;0.60;;;;;;;19.41;52.56;99711.94;10402602;28;20063;-64
2024/04/05 16:05:29;;;;;;;2.72;0.80;;;;;;;19.36;52.32;99717.06;10397605;28;20041;-62
2024/04/05 16:10:29;;;;;;;4.40;0.70;;;;;;;19.31;52.81;99729.47;10368025;28;20045;-63
2024/04/05 16:15:33;;;;;;;1.30;0.45;;;;;;;19.26;53.12;99743.56;10360777;28;20554;-66
2024/04/05 16:20:33;;;;;;;1.63;0.73;;;;;;;18.84;53.69;99704.69;10407810;28;20157;-64
2024/04/05 16:25:34;;;;;;;2.17;0.70;;;;;;;18.96;53.90;99727.47;10376129;28;20085;-63
2024/04/05 16:30:43;;;;;;;2.13;1.02;;;;;;;19.07;53.92;99740.44;10419254;28;20046;-64
2024/04/05 16:35:43;;;;;;;1.92;0.75;;;;;;;19.17;54.61;99755.47;10387863;28;20152;-64
2024/04/05 16:40:44;;;;;;;1.42;0.82;;;;;;;19.23;53.93;99770.91;10404409;28;20111;-63
2024/04/05 16:45:45;;;;;;;2.35;0.82;;;;;;;19.06;54.70;99751.44;10404106;28;20579;-63
2024/04/05 16:50:46;;;;;;;1.48;0.70;;;;;;;19.21;54.83;99778.34;10409111;28;20099;-61
2024/04/05 16:55:51;;;;;;;4.40;1.08;;;;;;;19.15;55.86;99771.03;10406293;28;20129;-63
2024/04/05 17:00:51;;;;;;;2.00;0.85;;;;;;;19.09;56.41;99775.31;10372618;28;20137;-62
2024/04/05 17:05:52;;;;;;;3.53;0.90;;;;;;;19.02;56.78;99775.25;10405000;28;20053;-67
2024/04/05 17:10:53;;;;;;;1.52;0.90;;;;;;;19.04;57.67;99789.38;10401164;28;20049;-66
2024/04/05 17:15:54;;;;;;;3.45;0.95;;;;;;;19.01;57.41;99784.38;10424277;28;20135;-64
2024/04/05 17:20:55;;;;;;;1.55;0.85;;;;;;;19.01;58.90;99792.47;10406926;28;20207;-64
2024/04/05 17:25:55;;;;;;;1.45;0.85;;;;;;;18.83;57.73;99775.84;10406788;28;20689;-65
2024/04/05 17:30:56;;;;;;;3.00;1.00;;;;;;;18.94;57.61;99805.03;10378814;28;20172;-66
2024/04/05 17:35:56;;;;;;;2.78;0.90;;;;;;;18.95;58.41;99800.47;10362044;28;20598;-67
2024/04/05 17:40:57;;;;;;;1.35;0.77;;;;;;;18.91;59.02;99800.00;10362979;28;20173;-65
2024/04/05 17:45:57;;;;;;;2.63;1.10;;;;;;;18.81;58.19;99810.22;10335173;28;20484;-67
2024/04/05 17:50:58;;;;;;;2.15;0.95;;;;;;;18.76;58.47;99818.03;10364918;28;20050;-65
2024/04/05 17:56:01;;;;;;;3.53;1.05;;;;;;;18.75;58.32;99827.16;10368703;28;20053;-65
2024/04/05 18:01:02;;;;;;;;;;;;;;;18.70;58.50;99836.63;10375768;28;20057;-66
2024/04/05 18:06:03;;;;;;;2.55;0.90;;;;;;;18.65;58.37;99836.38;10404911;28;20507;-64
2024/04/05 18:11:03;;;;;;;1.92;1.27;;;;;;;18.67;59.04;99841.56;10402621;28;20056;-64
2024/04/05 18:16:05;;;;;;;3.67;1.38;;;;;;;18.62;58.93;99844.81;10404962;28;20056;-70
2024/04/05 18:21:06;;;;;;;1.83;1.10;;;;;;;18.58;58.54;99856.16;10400166;28;20179;-67
2024/04/05 18:26:06;;;;;;;3.58;1.45;;;;;;;18.53;58.59;99851.34;10404606;28;20057;-69
2024/04/05 18:31:08;;;;;;;1.85;1.00;;;;;;;18.56;59.04;99861.75;10401633;28;20049;-69
2024/04/05 18:36:10;;;;;;;2.47;0.82;;;;;;;18.54;58.71;99879.97;10409383;28;20131;-69
2024/04/05 18:41:12;;;;;;;2.42;0.90;;;;;;;18.55;58.78;99892.41;10408581;28;20521;-69
2024/04/05 18:46:12;;;;;;;2.95;1.52;;;;;;;18.54;58.83;99888.88;10414811;28;20135;-68
2024/04/05 18:51:19;;;;;;;1.77;0.90;;;;;;;18.55;59.69;99900.47;10413540;28;20037;-69
2024/04/05 18:56:20;;;;;;;2.55;1.33;;;;;;;18.52;59.08;99904.38;10434317;28;20131;-69
2024/04/05 19:01:21;;;;;;;1.60;0.80;;;;;;;18.54;58.72;99923.09;10409870;28;20583;-67
2024/04/05 19:06:23;;;;;;;1.58;0.90;;;;;;;18.53;59.32;99921.41;10401958;28;20577;-66
2024/04/05 19:11:24;;;;;;;2.45;1.00;;;;;;;18.55;59.94;99930.13;10416080;28;20053;-65
2024/04/05 19:16:24;;;;;;;4.85;1.10;;;;;;;18.58;60.21;99928.94;10415252;28;20171;-65
2024/04/05 19:21:28;;;;;;;5.13;1.30;;;;;;;18.54;59.84;99942.78;10404026;28;20063;-66
2024/04/05 19:26:30;;;;;;;2.38;1.23;;;;;;;18.53;59.57;99929.50;10412370;28;20148;-67
2024/04/05 19:31:30;;;;;;;2.00;0.70;;;;;;;18.44;59.36;99920.63;10413420;28;20127;-69
2024/04/05 19:36:31;;;;;;;1.80;0.82;;;;;;;18.52;60.12;99941.28;10412498;28;20055;-68
2024/04/05 19:41:31;;;;;;;2.70;0.80;;;;;;;18.49;59.93;99934.38;10414405;28;20075;-69
2024/04/05 19:46:32;;;;;;;1.58;0.95;;;;;;;18.49;60.41;99942.47;10412845;28;20076;-67
2024/04/05 19:51:32;;;;;;;2.08;1.02;;;;;;;18.50;60.58;99935.25;10408844;28;20041;-68
2024/04/05 19:56:33;;;;;;;2.80;0.93;;;;;;;18.48;60.66;99934.56;10399208;28;20045;-67
2024/04/05 20:01:35;;;;;;;2.00;0.60;;;;;;;18.42;60.21;99943.38;10402272;28;20059;-68
2024/04/05 20:06:36;;;;;;;1.27;0.60;;;;;;;18.40;60.05;99951.66;10374354;28;20128;-67
2024/04/05 20:11:42;;;;;;;2.67;0.70;;;;;;;18.40;60.75;99958.91;10395592;28;20061;-66
2024/04/05 20:16:43;;;;;;;1.88;0.57;;;;;;;18.36;60.77;99951.19;10400364;28;20143;-66
2024/04/05 20:21:43;;;;;;;1.85;0.80;;;;;;;18.33;60.72;99954.25;10422971;28;20125;-66
2024/04/05 20:26:44;;;;;;;2.67;1.83;;;;;;;18.30;60.32;99949.22;10408391;28;20132;-63
2024/04/05 20:37:03;;;;;;;2.03;0.93;;;;;;;18.28;60.58;99966.59;10374988;28;20148;-63
2024/04/05 20:42:04;;;;;;;3.05;0.85;;;;;;;18.30;60.67;99972.63;10417318;28;20103;-64
2024/04/05 20:47:04;;;;;;;1.60;0.80;;;;;;;18.27;60.39;99964.91;10389190;28;20053;-62
2024/04/05 20:52:05;;;;;;;1.67;0.88;;;;;;;18.08;60.67;99950.09;10365345;28;20052;-64
2024/04/05 20:57:08;;;;;;;3.10;1.13;;;;;;;18.00;60.84;99943.75;10376907;28;20105;-64
2024/04/05 21:02:08;;;;;;;3.08;1.33;;;;;;;18.22;61.12;99975.41;10378068;28;20132;-62
2024/04/05 21:07:09;;;;;;;1.67;0.85;;;;;;;18.18;61.08;99988.41;10399471;28;20053;-63
2024/04/05 21:12:09;;;;;;;1.73;0.70;;;;;;;18.16;61.39;99987.72;10404266;28;20431;-64
2024/04/05 21:17:10;;;;;;;0.90;0.30;;;;;;;18.14;61.79;99982.50;10397578;28;20668;-63
2024/04/05 21:22:10;;;;;;;2.22;0.60;;;;;;;18.14;61.58;99982.50;10420720;28;20789;-63
2024/04/05 21:27:10;;;;;;;1.90;1.02;;;;;;;18.15;61.74;99989.59;10404223;28;20068;-64
2024/04/05 21:32:11;;;;;;;1.85;0.82;;;;;;;18.13;62.16;99985.38;10409874;28;20049;-64
2024/04/05 21:37:12;;;;;;;1.95;0.85;;;;;;;18.16;61.94;99990.41;10380562;28;20114;-64
2024/04/05 21:42:12;;;;;;;3.83;1.17;;;;;;;18.15;62.21;99986.91;10389210;28;20052;-63
2024/04/05 21:47:13;;;;;;;3.92;1.20;;;;;;;18.14;62.66;99992.47;10407524;28;20570;-63
2024/04/05 21:52:15;;;;;;;1.50;0.90;;;;;;;18.08;63.75;99994.00;10411191;28;20052;-65
2024/04/05 21:57:16;;;;;;;3.97;1.10;;;;;;;18.10;64.16;99996.53;10400604;28;20063;-63
2024/04/05 22:02:17;;;;;;;1.55;0.93;;;;;;;18.05;64.29;99994.38;10422810;28;20141;-64
2024/04/05 22:07:18;;;;;;;1.35;1.00;;;;;;;18.07;65.01;100002.25;10410342;28;20124;-63
2024/04/05 22:12:18;;;;;;;2.25;0.68;;;;;;;18.04;65.40;100006.16;10402562;28;20045;-63
2024/04/05 22:17:18;;;;;;;3.35;1.30;;;;;;;18.02;65.75;100006.31;10412227;28;20041;-63
2024/04/05 22:22:19;;;;;;;1.85;0.77;;;;;;;18.01;65.34;100001.97;10388994;28;20439;-64
2024/04/05 22:27:19;;;;;;;1.38;0.70;;;;;;;17.98;66.05;99991.53;10421420;28;20583;-63
2024/04/05 22:32:20;;;;;;;2.75;0.95;;;;;;;17.96;65.76;100006.22;10412493;28;20120;-64
2024/04/05 22:37:20;;;;;;;2.90;0.93;;;;;;;17.90;66.13;99996.97;10418088;28;20037;-64
2024/04/05 22:42:21;;;;;;;1.27;0.93;;;;;;;17.92;66.69;99997.63;10418971;28;20135;-62
2024/04/05 22:47:22;;;;;;;4.32;1.15;;;;;;;17.94;66.92;100009.09;10417367;28;20045;-62
2024/04/05 22:52:26;;;;;;;2.47;0.90;;;;;;;17.94;67.69;100019.00;10414751;28;20754;-63
2024/04/05 22:57:26;;;;;;;2.45;0.90;;;;;;;17.91;66.72;100012.13;10410709;28;20129;-67
2024/04/05 23:02:27;;;;;;;2.83;1.30;;;;;;;17.87;67.27;100008.06;10415214;28;20049;-62
2024/04/05 23:07:27;;;;;;;1.88;0.85;;;;;;;17.84;67.74;99997.66;10414146;28;20113;-63
2024/04/05 23:12:28;;;;;;;2.20;1.20;;;;;;;17.88;68.30;100004.38;10412732;28;20079;-63
2024/04/05 23:17:28;;;;;;;2.35;0.90;;;;;;;17.89;68.74;100010.59;10415595;28;20044;-63